createdAt,value
2022-11-01T00:03:29.531Z,227.87097
2022-11-01T00:08:31.164Z,215.36564
2022-11-01T00:13:32.800Z,217.77778
2022-11-01T00:18:34.448Z,220.23318
2022-11-01T00:23:36.106Z,224
2022-11-01T00:28:37.821Z,237.33333
2022-11-01T00:33:39.548Z,222.73303
2022-11-01T00:38:41.168Z,217.77778
2022-11-01T00:43:42.781Z,217.77778
2022-11-01T00:48:44.448Z,208.37768
2022-11-01T00:53:46.080Z,215.36564
2022-11-01T00:58:47.697Z,225.27854
2022-11-01T01:03:49.347Z,214.17544
2022-11-01T01:08:51.011Z,217.77778
2022-11-01T01:13:52.926Z,212.99563
2022-11-01T01:18:54.602Z,230.51163
2022-11-01T01:23:56.557Z,227.87097
2022-11-01T01:28:58.465Z,237.33333
2022-11-01T01:34:00.099Z,255.11111
2022-11-01T01:39:01.797Z,253.54774
2022-11-01T01:44:03.526Z,237.33333
2022-11-01T01:49:05.206Z,258.28571
2022-11-01T01:54:06.875Z,258.28571
2022-11-01T01:59:08.576Z,264.83333
2022-11-01T02:04:10.313Z,244.4878
2022-11-01T02:09:11.999Z,259.89744
2022-11-01T02:14:13.634Z,259.89744
2022-11-01T02:19:15.329Z,243.02913
2022-11-01T02:24:17.253Z,259.89744
2022-11-01T02:29:18.877Z,247.44828
2022-11-01T02:34:20.559Z,233.20188
2022-11-01T02:39:22.266Z,234.56604
2022-11-01T02:44:23.859Z,235.94313
2022-11-01T02:49:25.523Z,234.56604
2022-11-01T02:54:27.305Z,227.87097
2022-11-01T02:59:28.908Z,227.87097
2022-11-01T03:04:30.547Z,234.56604
2022-11-01T03:09:32.215Z,233.20188
2022-11-01T03:14:33.823Z,235.94313
2022-11-01T03:19:35.414Z,231.85047
2022-11-01T03:24:37.142Z,233.20188
2022-11-01T03:29:38.780Z,235.94313
2022-11-01T03:34:40.415Z,230.51163
2022-11-01T03:39:42.012Z,231.85047
2022-11-01T03:44:43.609Z,229.18519
2022-11-01T03:49:45.510Z,243.02913
2022-11-01T03:54:47.129Z,245.96078
2022-11-01T03:59:48.910Z,238.73684
2022-11-01T04:04:50.600Z,227.87097
2022-11-01T04:09:52.347Z,222.73303
2022-11-01T04:14:54.107Z,215.36564
2022-11-01T04:19:55.790Z,214.17544
2022-11-01T04:24:57.407Z,207.24786
2022-11-01T04:29:59.011Z,205.01695
2022-11-01T04:35:00.745Z,201.74059
2022-11-01T04:40:02.463Z,201.74059
2022-11-01T04:45:04.037Z,197.49794
2022-11-01T04:50:05.710Z,199.60166
2022-11-01T04:55:07.395Z,209.51724
2022-11-01T05:00:09.041Z,215.36564
2022-11-01T05:05:10.658Z,237.33333
2022-11-01T05:10:12.318Z,217.77778
2022-11-01T05:15:13.987Z,217.77778
2022-11-01T05:20:15.601Z,220.23318
2022-11-01T05:25:17.366Z,216.56637
2022-11-01T05:30:19.046Z,220.23318
2022-11-01T05:35:20.703Z,235.94313
2022-11-01T05:40:22.405Z,222.73303
2022-11-01T05:45:24.158Z,226.56881
2022-11-01T05:50:25.772Z,221.47748
2022-11-01T05:55:27.421Z,217.77778
2022-11-01T06:00:29.082Z,217.77778
2022-11-01T06:05:30.739Z,217.77778
2022-11-01T06:10:32.351Z,212.99563
2022-11-01T06:15:37.135Z,217.77778
2022-11-01T06:20:41.629Z,224
2022-11-01T06:25:43.247Z,221.47748
2022-11-01T06:30:44.918Z,220.23318
2022-11-01T06:35:46.505Z,235.94313
2022-11-01T06:40:48.139Z,220.23318
2022-11-01T06:45:49.773Z,222.73303
2022-11-01T06:50:51.406Z,226.56881
2022-11-01T06:55:53.085Z,220.23318
2022-11-01T07:00:54.734Z,219
2022-11-01T07:05:56.399Z,220.23318
2022-11-01T07:10:58.045Z,226.56881
2022-11-01T07:15:59.643Z,221.47748
2022-11-01T07:21:01.335Z,226.56881
2022-11-01T07:26:02.978Z,219
2022-11-01T07:31:04.611Z,221.47748
2022-11-01T07:36:06.239Z,226.56881
2022-11-01T07:41:08.111Z,222.73303
2022-11-01T07:46:09.772Z,230.51163
2022-11-01T07:51:11.420Z,226.56881
2022-11-01T07:56:13.057Z,225.27854
2022-11-01T08:01:14.870Z,237.33333
2022-11-01T08:06:16.628Z,229.18519
2022-11-01T08:11:18.366Z,226.56881
2022-11-01T08:16:19.984Z,222.73303
2022-11-01T08:21:21.599Z,220.23318
2022-11-01T08:26:23.169Z,237.33333
2022-11-01T08:31:24.819Z,238.73684
2022-11-01T08:36:26.499Z,244.4878
2022-11-01T08:41:28.104Z,247.44828
2022-11-01T08:46:29.776Z,255.11111
2022-11-01T08:51:31.382Z,250.46766
2022-11-01T08:56:33.011Z,256.69036
2022-11-01T09:01:34.932Z,261.52577
2022-11-01T09:06:36.698Z,263.17098
2022-11-01T09:11:38.414Z,244.4878
2022-11-01T09:16:40.053Z,240.15385
2022-11-01T09:21:41.670Z,245.96078
2022-11-01T09:26:43.438Z,238.73684
2022-11-01T09:31:45.122Z,240.15385
2022-11-01T09:36:47.146Z,245.96078
2022-11-01T09:41:48.819Z,243.02913
2022-11-01T09:46:50.532Z,240.15385
2022-11-01T09:51:52.148Z,247.44828
2022-11-01T09:56:53.871Z,241.58454
2022-11-01T10:01:55.847Z,241.58454
2022-11-01T10:06:57.584Z,248.9505
2022-11-01T10:11:59.184Z,244.4878
2022-11-01T10:17:00.791Z,244.4878
2022-11-01T10:22:02.437Z,240.15385
2022-11-01T10:27:04.084Z,256.69036
2022-11-01T10:32:05.785Z,256.69036
2022-11-01T10:37:07.457Z,258.28571
2022-11-01T10:42:09.005Z,271.65957
2022-11-01T10:47:10.614Z,259.89744
2022-11-01T10:52:12.228Z,256.69036
2022-11-01T10:57:13.873Z,253.54774
2022-11-01T11:02:15.886Z,263.17098
2022-11-01T11:07:21.450Z,261.52577
2022-11-01T11:12:24.871Z,261.52577
2022-11-01T11:17:26.457Z,278.78261
2022-11-01T11:22:28.127Z,263.17098
2022-11-01T11:27:29.826Z,280.61202
2022-11-01T11:32:31.500Z,288.13408
2022-11-01T11:37:33.119Z,286.22222
2022-11-01T11:42:34.929Z,280.61202
2022-11-01T11:47:36.563Z,284.33149
2022-11-01T11:52:38.763Z,284.33149
2022-11-01T11:57:40.691Z,280.61202
2022-11-01T12:02:42.513Z,286.22222
2022-11-01T12:07:44.189Z,300.06936
2022-11-01T12:12:45.840Z,300.06936
2022-11-01T12:17:47.509Z,294
2022-11-01T12:22:49.115Z,286.22222
2022-11-01T12:27:50.721Z,292.0226
2022-11-01T12:32:52.321Z,294
2022-11-01T12:37:53.975Z,284.33149
2022-11-01T12:42:55.594Z,275.1828
2022-11-01T12:47:57.919Z,275.1828
2022-11-01T12:52:59.888Z,271.65957
2022-11-01T12:58:01.790Z,268.21053
2022-11-01T13:03:03.753Z,304.23392
2022-11-01T13:08:05.698Z,302.13953
2022-11-01T13:13:07.313Z,312.86228
2022-11-01T13:18:09.200Z,302.13953
2022-11-01T13:23:10.897Z,304.23392
2022-11-01T13:28:12.479Z,312.86228
2022-11-01T13:33:14.147Z,315.08434
2022-11-01T13:38:15.726Z,310.66667
2022-11-01T13:43:17.345Z,300.06936
2022-11-01T13:48:18.913Z,282.46154
2022-11-01T13:53:20.561Z,284.33149
2022-11-01T13:58:22.172Z,273.41176
2022-11-01T14:03:23.737Z,278.78261
2022-11-01T14:08:25.344Z,276.97297
2022-11-01T14:13:27.002Z,290.06742
2022-11-01T14:18:28.623Z,284.33149
2022-11-01T14:23:30.293Z,294
2022-11-01T14:28:32.006Z,306.35294
2022-11-01T14:33:33.627Z,304.23392
2022-11-01T14:38:35.426Z,300.06936
2022-11-01T14:43:37.020Z,288.13408
2022-11-01T14:48:38.644Z,308.49704
2022-11-01T14:53:40.364Z,317.33333
2022-11-01T14:58:41.981Z,315.08434
2022-11-01T15:03:43.756Z,306.35294
2022-11-01T15:08:45.477Z,304.23392
2022-11-01T15:13:47.086Z,304.23392
2022-11-01T15:18:48.862Z,306.35294
2022-11-01T15:23:50.476Z,310.66667
2022-11-01T15:28:52.121Z,324.24691
2022-11-01T15:33:53.786Z,315.08434
2022-11-01T15:38:55.399Z,300.06936
2022-11-01T15:43:57.106Z,310.66667
2022-11-01T15:48:58.725Z,298.02299
2022-11-01T15:54:00.328Z,308.49704
2022-11-01T15:59:01.947Z,298.02299
2022-11-01T16:04:03.704Z,308.49704
2022-11-01T16:09:05.347Z,304.23392
2022-11-01T16:14:06.945Z,306.35294
2022-11-01T16:19:08.614Z,296
2022-11-01T16:24:10.232Z,302.13953
2022-11-01T16:29:11.824Z,300.06936
2022-11-01T16:34:13.401Z,308.49704
2022-11-01T16:39:15.017Z,306.35294
2022-11-01T16:44:16.748Z,300.06936
2022-11-01T16:49:18.431Z,302.13953
2022-11-01T16:54:20.059Z,286.22222
2022-11-01T16:59:21.713Z,304.23392
2022-11-01T17:04:23.317Z,302.13953
2022-11-01T17:09:25.016Z,302.13953
2022-11-01T17:14:26.797Z,296
2022-11-01T17:19:28.434Z,290.06742
2022-11-01T17:24:30.154Z,302.13953
2022-11-01T17:29:31.766Z,310.66667
2022-11-01T17:39:36.016Z,317.33333
2022-11-01T17:44:37.643Z,321.91411
2022-11-01T17:49:39.282Z,312.86228
2022-11-01T17:54:40.893Z,331.42138
2022-11-01T17:59:42.604Z,329
2022-11-01T18:04:44.207Z,324.24691
2022-11-01T18:09:45.837Z,329
2022-11-01T18:14:47.691Z,326.6087
2022-11-01T18:19:49.341Z,326.6087
2022-11-01T18:24:51.010Z,329
2022-11-01T18:29:52.714Z,344
2022-11-01T18:34:54.337Z,341.41935
2022-11-01T18:39:56.068Z,321.91411
2022-11-01T18:44:57.903Z,331.42138
2022-11-01T18:49:59.487Z,331.42138
2022-11-01T18:55:01.138Z,324.24691
2022-11-01T19:00:02.781Z,331.42138
2022-11-01T19:05:04.512Z,312.86228
2022-11-01T19:10:06.237Z,326.6087
2022-11-01T19:15:07.895Z,338.87179
2022-11-01T19:20:09.541Z,326.6087
2022-11-01T19:25:11.865Z,338.87179
2022-11-01T19:30:13.549Z,333.87342
2022-11-01T19:35:20.906Z,333.87342
2022-11-01T19:40:27.502Z,346.61438
2022-11-01T19:45:29.678Z,349.26316
2022-11-01T19:50:31.291Z,346.61438
2022-11-01T19:55:32.872Z,336.35669
2022-11-01T20:00:34.443Z,331.42138
2022-11-01T20:05:36.113Z,341.41935
2022-11-01T20:10:37.701Z,326.6087
2022-11-01T20:15:39.286Z,324.24691
2022-11-01T20:20:41.130Z,331.42138
2022-11-01T20:25:42.803Z,341.41935
2022-11-01T20:30:44.407Z,344
2022-11-01T20:35:46.032Z,346.61438
2022-11-01T20:40:47.653Z,349.26316
2022-11-01T20:45:49.298Z,344
2022-11-01T20:50:50.896Z,344
2022-11-01T20:55:52.513Z,346.61438
2022-11-01T21:00:54.145Z,338.87179
2022-11-01T21:05:55.806Z,336.35669
2022-11-01T21:10:57.442Z,341.41935
2022-11-01T21:15:59.130Z,344
2022-11-01T21:21:00.755Z,336.35669
2022-11-01T21:26:02.348Z,329
2022-11-01T21:31:03.948Z,333.87342
2022-11-01T21:36:05.624Z,329
2022-11-01T21:41:07.249Z,331.42138
2022-11-01T21:46:08.882Z,326.6087
2022-11-01T21:51:10.558Z,304.23392
2022-11-01T21:56:12.171Z,312.86228
2022-11-01T22:01:13.896Z,304.23392
2022-11-01T22:06:15.625Z,317.33333
2022-11-01T22:11:20.611Z,306.35294
2022-11-01T22:16:25.163Z,317.33333
2022-11-01T22:21:26.768Z,312.86228
2022-11-01T22:26:28.366Z,315.08434
2022-11-01T22:31:30.037Z,317.33333
2022-11-01T22:36:31.638Z,300.06936
2022-11-01T22:41:33.902Z,300.06936
2022-11-01T22:46:35.726Z,317.33333
2022-11-01T22:51:37.363Z,302.13953
2022-11-01T22:56:38.972Z,315.08434
2022-11-01T23:01:40.759Z,304.23392
2022-11-01T23:06:42.497Z,298.02299
2022-11-01T23:11:44.163Z,256.69036
2022-11-01T23:16:45.771Z,275.1828
2022-11-01T23:21:47.391Z,300.06936
2022-11-01T23:26:49.084Z,292.0226
2022-11-01T23:31:50.929Z,269.92593
2022-11-01T23:36:52.519Z,290.06742
2022-11-01T23:41:54.154Z,288.13408
2022-11-01T23:46:55.761Z,310.66667
2022-11-01T23:51:57.359Z,304.23392
2022-11-01T23:56:58.975Z,308.49704
